Time;durP1;ratioP1;P1;durP2;ratioP2;P2;SDS_P1;SDS_P2;PMS_P1;PMS_P2;Temp;Humidity;BMP_temperature;BMP_pressure;BME280_temperature;BME280_humidity;BME280_pressure;Samples;Min_cycle;Max_cycle;Signal;HPM_P1;HPM_P2
2023/08/31 00:02:06;;;;;;;;;5.00;3.33;;;;;16.57;83.83;101069.41;5120465;27;45408;-75
2023/08/31 00:04:32;;;;;;;;;4.33;3.00;;;;;16.58;85.12;101078.28;5119786;27;46121;-75
2023/08/31 00:06:57;;;;;;;;;4.00;3.00;;;;;16.52;83.73;101074.16;5119922;27;45310;-75
2023/08/31 00:09:25;;;;;;;;;5.00;2.00;;;;;16.52;82.14;101078.69;5122202;27;45416;-75
2023/08/31 00:11:51;;;;;;;;;5.33;3.00;;;;;16.60;82.77;101098.59;5103527;27;45372;-75
2023/08/31 00:14:17;;;;;;;;;4.00;1.00;;;;;16.61;83.45;101086.94;5109952;27;45580;-75
2023/08/31 00:16:42;;;;;;;;;3.00;3.00;;;;;16.64;81.42;101088.56;5116765;27;46897;-75
2023/08/31 00:19:08;;;;;;;;;5.00;4.67;;;;;16.63;82.66;101082.34;5116850;27;45515;-75
2023/08/31 00:21:33;;;;;;;;;3.67;3.00;;;;;16.64;80.29;101073.38;5117015;27;45266;-75
2023/08/31 00:23:59;;;;;;;;;4.67;4.67;;;;;16.65;81.71;101076.91;5114662;27;47262;-75
2023/08/31 00:26:24;;;;;;;;;3.00;3.00;;;;;16.68;82.85;101079.38;5113413;27;45512;-75
2023/08/31 00:28:50;;;;;;;;;6.67;3.00;;;;;16.72;81.36;101082.69;5110576;27;45429;-75
2023/08/31 00:31:15;;;;;;;;;1.00;1.00;;;;;16.62;83.81;101066.44;5116199;27;45232;-75
2023/08/31 00:33:40;;;;;;;;;2.00;2.00;;;;;16.67;82.02;101072.31;5110599;27;46049;-75
2023/08/31 00:36:06;;;;;;;;;3.00;3.00;;;;;16.61;82.27;101065.59;5115258;27;45449;-75
2023/08/31 00:38:31;;;;;;;;;2.00;2.00;;;;;16.71;83.30;101059.63;5117182;27;45507;-75
2023/08/31 00:40:56;;;;;;;;;5.00;5.00;;;;;16.68;83.79;101060.69;5105083;27;45253;-75
2023/08/31 00:43:22;;;;;;;;;4.00;3.00;;;;;16.69;82.50;101074.91;5117514;27;45431;-75
2023/08/31 00:45:56;;;;;;;;;4.67;3.67;;;;;16.61;83.66;101062.91;5110808;27;45505;-75
2023/08/31 00:48:22;;;;;;;;;3.00;2.67;;;;;16.68;82.86;101071.38;5118988;27;45347;-75
2023/08/31 00:50:48;;;;;;;;;2.67;2.00;;;;;16.64;81.87;101070.72;5113674;27;45343;-75
2023/08/31 00:53:15;;;;;;;;;4.00;2.00;;;;;16.59;81.33;101055.94;5119457;27;46339;-76
2023/08/31 00:55:43;;;;;;;;;2.00;2.00;;;;;16.59;83.50;101048.78;5119327;27;45390;-76
2023/08/31 00:58:09;;;;;;;;;2.33;2.33;;;;;16.65;82.53;101066.25;5111283;27;45319;-76
2023/08/31 01:00:56;;;;;;;;;2.00;2.00;;;;;16.54;82.29;101053.56;5117701;27;45717;-76
2023/08/31 01:03:46;;;;;;;;;2.00;2.00;;;;;16.60;83.95;101074.56;5112733;27;47108;-75
2023/08/31 01:06:50;;;;;;;;;3.00;2.67;;;;;16.55;84.94;101059.81;5107245;27;45510;-75
2023/08/31 01:09:31;;;;;;;;;2.00;2.00;;;;;16.43;85.15;101052.56;5120173;27;45539;-76
2023/08/31 01:12:29;;;;;;;;;2.67;1.67;;;;;16.44;86.02;101064.97;5116372;27;45428;-75
2023/08/31 01:15:02;;;;;;;;;3.67;2.00;;;;;16.41;85.35;101065.19;5108561;27;45496;-75
2023/08/31 01:17:30;;;;;;;;;6.00;3.67;;;;;16.42;83.59;101065.09;5113185;27;46420;-75
2023/08/31 01:19:59;;;;;;;;;3.00;2.00;;;;;16.41;83.24;101066.03;5114626;27;45364;-76
2023/08/31 01:22:33;;;;;;;;;3.00;2.00;;;;;16.42;84.80;101073.09;5113802;27;45301;-75
2023/08/31 01:25:03;;;;;;;;;2.00;2.00;;;;;16.32;85.58;101061.31;5112180;27;45406;-75
2023/08/31 01:27:31;;;;;;;;;4.33;4.00;;;;;16.42;82.39;101077.59;5117208;27;45426;-74
2023/08/31 01:29:56;;;;;;;;;2.00;2.00;;;;;16.33;85.45;101059.50;5120003;27;45641;-75
2023/08/31 01:32:21;;;;;;;;;4.00;2.67;;;;;16.43;83.89;101089.94;5122230;27;45510;-75
2023/08/31 01:34:47;;;;;;;;;4.00;3.00;;;;;16.37;85.12;101071.69;5120615;27;45409;-75
2023/08/31 01:37:20;;;;;;;;;3.00;3.00;;;;;16.43;85.73;101081.94;5112694;27;50341;-75
2023/08/31 01:40:03;;;;;;;;;2.33;2.33;;;;;16.39;85.12;101083.94;5112790;27;45283;-75
2023/08/31 01:42:31;;;;;;;;;3.67;2.00;;;;;16.37;87.39;101082.34;5115345;27;45295;-76
2023/08/31 01:44:57;;;;;;;;;2.00;2.00;;;;;16.40;87.25;101083.00;5111360;27;46229;-75
2023/08/31 01:47:24;;;;;;;;;1.00;1.00;;;;;16.40;85.21;101088.34;5113862;27;45437;-75
2023/08/31 01:49:50;;;;;;;;;2.00;2.00;;;;;16.40;86.79;101079.47;5105950;27;45427;-75
2023/08/31 01:52:16;;;;;;;;;2.00;2.00;;;;;16.38;84.13;101071.59;5117269;27;45310;-75
2023/08/31 01:54:41;;;;;;;;;2.00;2.00;;;;;16.41;86.36;101084.72;5119275;27;47596;-75
2023/08/31 01:57:06;;;;;;;;;3.00;2.00;;;;;16.41;84.87;101079.38;5118417;27;45533;-75
2023/08/31 01:59:33;;;;;;;;;2.00;2.00;;;;;16.42;85.89;101074.91;5112965;27;45423;-75
2023/08/31 02:01:59;;;;;;;;;3.00;3.00;;;;;16.40;85.70;101077.66;5122488;27;45459;-76
2023/08/31 02:04:24;;;;;;;;;3.00;2.00;;;;;16.42;84.14;101078.44;5111641;27;45370;-75
2023/08/31 02:06:49;;;;;;;;;8.00;4.00;;;;;16.42;86.23;101073.09;5119207;27;45674;-75
2023/08/31 02:09:15;;;;;;;;;2.00;2.00;;;;;16.30;86.07;101057.03;5118738;27;45480;-75
2023/08/31 02:11:40;;;;;;;;;2.00;2.00;;;;;16.27;86.95;101046.56;5110361;27;45515;-75
2023/08/31 02:14:07;;;;;;;;;2.33;2.33;;;;;16.40;88.32;101066.13;5115091;27;47552;-75
2023/08/31 02:16:33;;;;;;;;;3.00;3.00;;;;;16.34;87.58;101067.41;5122935;27;45223;-75
2023/08/31 02:18:58;;;;;;;;;2.00;2.00;;;;;16.36;88.56;101067.31;5120352;27;45566;-75
2023/08/31 02:21:24;;;;;;;;;2.00;2.00;;;;;16.33;88.65;101067.53;5120561;27;45518;-76
2023/08/31 02:23:49;;;;;;;;;1.33;1.33;;;;;16.30;88.13;101068.56;5112487;27;45268;-75
2023/08/31 02:26:15;;;;;;;;;3.00;2.33;;;;;16.29;86.10;101068.69;5118873;27;45368;-75
2023/08/31 02:28:40;;;;;;;;;3.00;3.00;;;;;16.30;86.09;101063.22;5120692;27;45526;-75
2023/08/31 02:31:06;;;;;;;;;2.00;2.00;;;;;16.28;88.24;101059.81;5116083;27;50112;-74
2023/08/31 02:33:31;;;;;;;;;3.33;3.33;;;;;16.22;87.25;101057.56;5112396;27;51538;-75
2023/08/31 02:35:57;;;;;;;;;2.33;2.33;;;;;16.23;88.87;101058.41;5114678;27;45476;-76
2023/08/31 02:38:23;;;;;;;;;5.00;4.00;;;;;16.29;88.96;101072.22;5117982;27;45480;-75
2023/08/31 02:40:48;;;;;;;;;2.00;2.00;;;;;16.21;88.91;101060.31;5112211;27;45366;-76
2023/08/31 02:43:14;;;;;;;;;4.33;3.00;;;;;16.25;88.67;101073.38;5110748;27;46039;-75
2023/08/31 02:45:39;;;;;;;;;3.67;1.67;;;;;16.27;87.00;101079.44;5117572;27;45359;-75
2023/08/31 02:48:08;;;;;;;;;3.00;2.00;;;;;16.29;87.55;101079.34;5119515;27;45547;-75
2023/08/31 02:50:37;;;;;;;;;3.00;3.00;;;;;16.28;89.90;101078.50;5117363;27;45251;-76
2023/08/31 02:53:03;;;;;;;;;3.67;2.00;;;;;16.25;88.90;101076.03;5115491;27;47488;-75
2023/08/31 02:55:28;;;;;;;;;2.00;2.00;;;;;16.25;91.05;101075.16;5120909;27;45402;-75
2023/08/31 02:57:54;;;;;;;;;2.33;2.33;;;;;16.30;88.77;101075.72;5114618;27;45452;-75
2023/08/31 03:00:21;;;;;;;;;5.33;3.67;;;;;16.31;88.03;101072.94;5116913;27;45243;-75
2023/08/31 03:02:52;;;;;;;;;1.33;1.33;;;;;16.26;84.65;101063.53;5114696;27;46158;-75
2023/08/31 03:05:18;;;;;;;;;5.00;3.00;;;;;16.34;86.75;101077.22;5117309;27;45559;-75
2023/08/31 03:07:44;;;;;;;;;3.00;3.00;;;;;16.33;85.32;101078.19;5123199;27;45485;-74
2023/08/31 03:10:10;;;;;;;;;4.33;2.33;;;;;16.34;83.52;101079.88;5115555;27;45492;-76
2023/08/31 03:12:35;;;;;;;;;3.00;3.00;;;;;16.35;84.65;101078.94;5119276;27;45364;-75
2023/08/31 03:15:01;;;;;;;;;3.00;3.00;;;;;16.38;85.50;101068.91;5124885;27;45455;-75
2023/08/31 03:17:26;;;;;;;;;4.00;2.00;;;;;16.38;83.94;101074.25;5120716;27;45341;-75
2023/08/31 03:19:51;;;;;;;;;6.33;3.33;;;;;16.35;85.87;101063.78;5117818;27;55302;-75
2023/08/31 03:22:16;;;;;;;;;3.33;3.00;;;;;16.37;86.28;101066.34;5113855;27;45483;-75
2023/08/31 03:24:42;;;;;;;;;3.00;3.00;;;;;16.42;85.68;101072.25;5115508;27;45587;-75
2023/08/31 03:27:07;;;;;;;;;2.00;2.00;;;;;16.42;86.36;101065.09;5124857;27;45349;-75
2023/08/31 03:29:34;;;;;;;;;3.00;3.00;;;;;16.45;87.81;101064.03;5109304;27;45635;-75
2023/08/31 03:32:00;;;;;;;;;3.00;3.00;;;;;16.42;87.26;101054.41;5111526;27;45492;-75
2023/08/31 03:34:30;;;;;;;;;4.00;2.00;;;;;16.40;88.63;101058.97;5120848;27;45243;-75
2023/08/31 03:36:55;;;;;;;;;2.67;2.67;;;;;16.34;87.90;101039.84;5111815;27;45453;-75
2023/08/31 03:39:20;;;;;;;;;3.33;1.33;;;;;16.46;88.04;101053.22;5120576;27;45654;-75
2023/08/31 03:41:45;;;;;;;;;4.33;4.00;;;;;16.44;88.22;101056.97;5112962;27;54521;-75
2023/08/31 03:44:11;;;;;;;;;3.67;3.67;;;;;16.44;87.99;101062.31;5117202;27;45424;-76
2023/08/31 03:46:36;;;;;;;;;3.00;3.00;;;;;16.44;88.60;101057.81;5118405;27;45306;-76
2023/08/31 03:49:02;;;;;;;;;2.33;2.33;;;;;16.39;85.21;101037.75;5110669;27;45438;-75
2023/08/31 03:51:27;;;;;;;;;3.00;3.00;;;;;16.39;87.01;101049.25;5105787;27;46022;-75
2023/08/31 03:53:54;;;;;;;;;3.00;3.00;;;;;16.37;85.88;101042.31;5116051;27;45287;-76
2023/08/31 03:56:20;;;;;;;;;3.00;3.00;;;;;16.45;87.08;101048.88;5115767;27;45467;-75
2023/08/31 03:58:45;;;;;;;;;4.00;2.00;;;;;16.35;86.28;101042.44;5110965;27;45512;-75
2023/08/31 04:01:10;;;;;;;;;3.00;2.00;;;;;16.33;88.12;101044.31;5121680;27;46168;-75
2023/08/31 04:03:36;;;;;;;;;2.00;2.00;;;;;16.44;86.06;101071.16;5122335;27;45369;-75
2023/08/31 04:06:01;;;;;;;;;4.00;3.00;;;;;16.44;88.84;101064.97;5113776;27;45464;-75
2023/08/31 04:08:27;;;;;;;;;2.67;2.67;;;;;16.28;88.26;101040.25;5118525;27;45495;-75
2023/08/31 04:10:52;;;;;;;;;4.00;2.67;;;;;16.39;83.80;101067.09;5112000;27;45460;-75
2023/08/31 04:13:17;;;;;;;;;2.33;2.33;;;;;16.32;87.07;101049.78;5115415;27;45744;-76
2023/08/31 04:15:43;;;;;;;;;3.33;2.67;;;;;16.32;87.72;101057.78;5111445;27;45735;-75
2023/08/31 04:18:08;;;;;;;;;4.67;4.00;;;;;16.39;87.68;101067.94;5116060;27;48456;-75
2023/08/31 04:20:33;;;;;;;;;4.00;3.33;;;;;16.38;86.19;101068.06;5106070;27;45645;-76
2023/08/31 04:22:59;;;;;;;;;3.00;3.00;;;;;16.27;85.00;101041.22;5116566;27;45321;-75
2023/08/31 04:25:24;;;;;;;;;5.33;2.67;;;;;16.38;86.94;101065.38;5115113;27;45389;-75
2023/08/31 04:27:50;;;;;;;;;3.00;3.00;;;;;16.37;86.91;101063.66;5115989;27;45751;-76
2023/08/31 04:30:15;;;;;;;;;3.67;2.33;;;;;16.30;86.00;101052.53;5107512;27;45468;-75
2023/08/31 04:32:41;;;;;;;;;2.67;2.00;;;;;16.32;86.97;101065.81;5115233;27;45826;-75
2023/08/31 04:35:06;;;;;;;;;4.67;2.00;;;;;16.26;89.62;101059.06;5109784;27;45733;-75
2023/08/31 04:37:33;;;;;;;;;3.33;2.33;;;;;16.24;90.92;101060.97;5116556;27;45465;-75
2023/08/31 04:39:58;;;;;;;;;5.67;2.67;;;;;16.27;89.16;101065.22;5110883;27;45487;-75
2023/08/31 04:42:24;;;;;;;;;4.33;3.00;;;;;16.12;88.43;101037.78;5113907;27;45288;-75
2023/08/31 04:44:49;;;;;;;;;4.67;3.00;;;;;16.27;87.53;101073.25;5117776;27;45362;-75
2023/08/31 04:47:15;;;;;;;;;2.00;2.00;;;;;16.26;86.55;101074.22;5110735;27;45283;-75
2023/08/31 04:49:40;;;;;;;;;4.00;4.00;;;;;16.28;88.43;101077.63;5118952;27;47182;-76
2023/08/31 04:52:05;;;;;;;;;3.00;2.00;;;;;16.27;89.91;101075.91;5121055;27;45268;-76
2023/08/31 04:54:31;;;;;;;;;3.00;3.00;;;;;16.30;89.44;101081.03;5119675;27;45293;-76
2023/08/31 04:56:56;;;;;;;;;7.00;2.00;;;;;16.28;87.85;101077.63;5117265;27;46089;-75
2023/08/31 04:59:21;;;;;;;;;4.00;2.33;;;;;16.16;89.41;101063.31;5118334;27;45369;-76
2023/08/31 05:01:47;;;;;;;;;5.00;3.33;;;;;16.27;86.84;101083.91;5117611;27;45498;-75
2023/08/31 05:04:12;;;;;;;;;2.33;2.00;;;;;16.25;85.08;101075.16;5115739;27;45437;-76
2023/08/31 05:06:37;;;;;;;;;5.00;2.00;;;;;16.28;88.91;101080.31;5123073;27;45640;-76
2023/08/31 05:09:03;;;;;;;;;3.33;3.00;;;;;16.26;89.12;101087.56;5135466;27;45668;-75
2023/08/31 05:11:29;;;;;;;;;5.00;3.00;;;;;16.27;84.32;101099.94;5126949;27;45451;-76
2023/08/31 05:13:54;;;;;;;;;2.00;1.33;;;;;16.21;87.52;101090.53;5124319;27;45529;-75
2023/08/31 05:16:19;;;;;;;;;4.33;3.33;;;;;16.24;90.95;101084.13;5129531;27;45370;-76
2023/08/31 05:18:45;;;;;;;;;2.00;2.00;;;;;16.19;88.43;101071.09;5129916;27;45477;-75
2023/08/31 05:21:10;;;;;;;;;3.00;2.00;;;;;16.21;91.51;101081.66;5120935;27;45468;-76
2023/08/31 05:23:35;;;;;;;;;2.33;2.33;;;;;16.23;89.03;101091.28;5119888;27;45357;-76
2023/08/31 05:26:01;;;;;;;;;4.00;2.33;;;;;16.24;89.69;101094.81;5125151;27;45496;-75
2023/08/31 05:28:26;;;;;;;;;3.00;3.00;;;;;16.21;87.48;101087.00;5126591;27;45955;-75
2023/08/31 05:30:55;;;;;;;;;6.67;3.33;;;;;16.22;87.63;101091.38;5124350;27;45359;-76
2023/08/31 05:33:25;;;;;;;;;3.00;2.00;;;;;16.10;88.33;101069.88;5122088;27;45353;-76
2023/08/31 05:35:51;;;;;;;;;2.00;2.00;;;;;16.29;88.05;101101.56;5124446;27;45672;-76
2023/08/31 05:38:16;;;;;;;;;3.00;3.00;;;;;16.23;87.35;101091.28;5128541;27;45462;-76
2023/08/31 05:40:45;;;;;;;;;4.00;3.00;;;;;16.19;85.97;101088.94;5124181;27;45489;-76
2023/08/31 05:43:11;;;;;;;;;3.67;2.33;;;;;16.32;87.99;101101.38;5144736;27;45562;-76
2023/08/31 05:45:36;;;;;;;;;2.00;2.00;;;;;16.34;86.35;101102.09;5130769;27;45205;-76
2023/08/31 05:48:02;;;;;;;;;4.00;3.00;;;;;16.38;89.39;101102.75;5134264;27;46207;-76
2023/08/31 05:50:27;;;;;;;;;6.33;2.67;;;;;16.38;92.55;101105.44;5121809;27;44722;-76
2023/08/31 05:52:54;;;;;;;;;3.67;3.00;;;;;16.39;89.49;101102.66;5130432;27;45411;-76
2023/08/31 05:55:19;;;;;;;;;5.33;4.00;;;;;16.32;93.11;101089.81;5120211;27;45402;-76
2023/08/31 05:57:45;;;;;;;;;3.67;3.00;;;;;16.46;96.76;101117.31;5120893;27;45324;-75
2023/08/31 06:00:11;;;;;;;;;2.33;2.33;;;;;16.40;99.39;101101.69;5130672;27;45288;-76
2023/08/31 06:02:36;;;;;;;;;6.00;4.00;;;;;16.45;100.00;101107.59;5122308;27;45282;-76
2023/08/31 06:05:03;;;;;;;;;4.67;2.00;;;;;16.50;100.00;101116.16;5123749;27;45432;-76
2023/08/31 06:07:29;;;;;;;;;4.67;3.00;;;;;16.39;98.89;101091.13;5126308;27;45254;-75
2023/08/31 06:09:55;;;;;;;;;5.00;3.00;;;;;16.41;99.79;101100.75;5123075;27;45739;-75
2023/08/31 06:12:20;;;;;;;;;3.00;3.00;;;;;16.55;99.60;101122.09;5117762;27;45377;-76
2023/08/31 06:14:45;;;;;;;;;5.67;4.33;;;;;16.54;100.00;101117.66;5113942;27;45531;-75
2023/08/31 06:17:12;;;;;;;;;2.33;2.33;;;;;16.59;100.00;101120.91;5115503;27;49407;-75
2023/08/31 06:19:38;;;;;;;;;6.67;2.33;;;;;16.63;99.40;101124.22;5116461;27;45486;-75
2023/08/31 06:22:04;;;;;;;;;2.00;1.00;;;;;16.61;97.03;101113.66;5115419;27;45526;-75
2023/08/31 06:24:29;;;;;;;;;2.33;2.00;;;;;16.74;96.12;101123.50;5116210;27;45631;-75
2023/08/31 06:26:56;;;;;;;;;2.67;2.67;;;;;16.77;94.34;101117.97;5108304;27;45271;-75
2023/08/31 06:29:22;;;;;;;;;4.00;3.00;;;;;16.73;92.13;101111.97;5107833;27;45660;-75
2023/08/31 06:31:47;;;;;;;;;3.33;3.33;;;;;16.74;88.93;101108.34;5117198;27;45498;-75
2023/08/31 06:34:12;;;;;;;;;3.33;2.00;;;;;16.86;93.14;101136.03;5102702;27;46102;-76
2023/08/31 06:36:38;;;;;;;;;4.67;2.33;;;;;16.89;88.51;101142.00;5100210;27;46784;-75
2023/08/31 06:39:04;;;;;;;;;3.33;2.00;;;;;16.92;88.71;101133.78;5113674;27;45287;-75
2023/08/31 06:41:30;;;;;;;;;2.33;2.33;;;;;16.81;92.63;101130.16;5112439;27;45444;-75
2023/08/31 06:43:55;;;;;;;;;2.00;2.00;;;;;16.94;87.68;101131.88;5113140;27;45625;-75
2023/08/31 06:46:21;;;;;;;;;4.33;2.00;;;;;16.94;91.03;101123.00;5135708;27;47886;-76
2023/08/31 06:48:46;;;;;;;;;3.67;2.00;;;;;16.84;85.67;101108.56;5102533;27;45359;-76
2023/08/31 06:51:11;;;;;;;;;3.00;3.00;;;;;17.00;91.51;101138.63;5104388;27;45334;-75
2023/08/31 06:53:37;;;;;;;;;2.00;2.00;;;;;17.03;86.28;101141.94;5103790;27;45444;-75
2023/08/31 06:56:02;;;;;;;;;5.33;1.33;;;;;17.00;87.22;101141.28;5115524;27;45467;-75
2023/08/31 06:58:27;;;;;;;;;3.33;2.33;;;;;17.06;87.90;101148.88;5119801;27;45493;-74
2023/08/31 07:00:53;;;;;;;;;2.00;2.00;;;;;16.99;89.38;101135.09;5104618;27;45364;-75
2023/08/31 07:03:18;;;;;;;;;7.00;4.00;;;;;16.97;90.67;101131.69;5112934;27;45394;-75
2023/08/31 07:05:43;;;;;;;;;2.00;2.00;;;;;17.14;94.18;101146.56;5114883;27;47614;-75
2023/08/31 07:08:10;;;;;;;;;5.33;4.00;;;;;17.22;95.14;101146.00;5120177;27;45543;-75
2023/08/31 07:10:36;;;;;;;;;1.67;1.00;;;;;17.14;88.60;101139.41;5113016;27;45305;-75
2023/08/31 07:13:03;;;;;;;;;6.00;3.33;;;;;17.30;89.01;101147.22;5121376;27;45454;-75
2023/08/31 07:15:28;;;;;;;;;4.00;2.67;;;;;17.35;87.88;101154.88;5122165;27;46311;-75
2023/08/31 07:17:54;;;;;;;;;2.67;2.00;;;;;17.25;81.75;101132.44;5136858;27;45498;-75
2023/08/31 07:20:19;;;;;;;;;4.00;2.67;;;;;17.41;82.57;101149.97;5112024;27;45551;-75
2023/08/31 07:22:45;;;;;;;;;3.67;3.00;;;;;17.51;83.33;101166.22;5121665;27;45358;-75
2023/08/31 07:25:10;;;;;;;;;4.67;4.67;;;;;17.44;85.76;101146.25;5108727;27;46105;-74
2023/08/31 07:27:35;;;;;;;;;5.33;2.00;;;;;17.26;87.04;101105.59;5108456;27;45493;-75
2023/08/31 07:30:02;;;;;;;;;3.67;2.33;;;;;17.71;80.99;101165.72;5122528;27;45752;-75
2023/08/31 07:32:28;;;;;;;;;3.00;3.00;;;;;17.75;79.25;101163.66;5121556;27;45454;-74
2023/08/31 07:34:53;;;;;;;;;4.33;3.00;;;;;17.84;81.02;101169.22;5120427;27;45442;-74
2023/08/31 07:37:19;;;;;;;;;2.00;2.00;;;;;17.91;79.75;101172.31;5122300;27;45476;-75
2023/08/31 07:39:44;;;;;;;;;2.00;1.67;;;;;17.85;77.07;101173.63;5109031;27;48100;-76
2023/08/31 07:42:10;;;;;;;;;6.67;3.00;;;;;17.94;77.48;101183.66;5121934;27;45413;-75
2023/08/31 07:44:35;;;;;;;;;4.67;2.67;;;;;17.84;77.12;101171.91;5122166;27;45562;-75
2023/08/31 07:47:02;;;;;;;;;3.00;2.33;;;;;17.87;77.01;101165.47;5117340;27;45296;-75
2023/08/31 07:49:27;;;;;;;;;6.00;3.00;;;;;18.04;78.81;101182.03;5122517;27;45369;-75
2023/08/31 07:51:52;;;;;;;;;2.00;2.00;;;;;18.10;76.59;101194.97;5117647;27;45319;-75
2023/08/31 07:54:21;;;;;;;;;3.00;2.33;;;;;18.22;76.66;101182.53;5107489;27;48411;-76
2023/08/31 07:56:46;;;;;;;;;1.67;1.33;;;;;18.24;75.46;101169.88;5116500;27;45384;-75
2023/08/31 07:59:12;;;;;;;;;4.00;2.00;;;;;18.41;76.09;101180.22;5114923;27;45905;-75
2023/08/31 08:01:37;;;;;;;;;2.33;2.00;;;;;18.59;74.70;101181.56;5120463;27;45604;-76
2023/08/31 08:04:02;;;;;;;;;2.67;2.67;;;;;18.69;75.32;101179.91;5112286;27;48754;-75
2023/08/31 08:06:28;;;;;;;;;7.00;3.00;;;;;18.77;73.12;101181.16;5119166;27;45307;-75
2023/08/31 08:08:53;;;;;;;;;4.00;3.00;;;;;18.81;73.42;101172.78;5116626;27;45388;-75
2023/08/31 08:11:19;;;;;;;;;5.00;2.33;;;;;18.88;69.58;101182.03;5111087;27;45362;-75
2023/08/31 08:13:44;;;;;;;;;2.00;2.00;;;;;18.90;73.44;101180.13;5124080;27;48473;-75
2023/08/31 08:16:09;;;;;;;;;2.67;2.33;;;;;18.91;70.56;101165.75;5123833;27;45492;-75
2023/08/31 08:18:35;;;;;;;;;1.67;1.33;;;;;18.96;73.70;101168.06;5111426;27;45347;-75
2023/08/31 08:21:00;;;;;;;;;2.00;2.00;;;;;19.07;72.08;101178.84;5108156;27;45440;-75
2023/08/31 08:23:25;;;;;;;;;4.00;2.67;;;;;19.17;73.04;101179.84;5119091;27;45423;-75
2023/08/31 08:25:51;;;;;;;;;4.00;2.00;;;;;19.25;73.14;101180.94;5113547;27;45718;-75
2023/08/31 08:28:16;;;;;;;;;5.33;1.67;;;;;19.19;74.43;101159.13;5115006;27;45452;-75
2023/08/31 08:30:41;;;;;;;;;5.67;3.00;;;;;19.34;69.30;101173.19;5120554;27;45462;-75
2023/08/31 08:33:08;;;;;;;;;2.00;2.00;;;;;19.27;69.45;101155.84;5111432;27;46199;-75
2023/08/31 08:35:33;;;;;;;;;1.33;1.33;;;;;19.40;71.13;101178.06;5115354;27;45558;-75
2023/08/31 08:37:59;;;;;;;;;3.00;1.67;;;;;19.43;67.54;101170.66;5108700;27;45281;-74
2023/08/31 08:40:24;;;;;;;;;2.00;2.00;;;;;19.39;70.56;101160.25;5113937;27;45482;-75
2023/08/31 08:42:53;;;;;;;;;1.33;1.00;;;;;19.48;72.21;101168.47;5107840;27;46469;-75
2023/08/31 08:45:24;;;;;;;;;5.33;4.00;;;;;19.60;67.75;101185.44;5119531;27;45608;-75
2023/08/31 08:47:51;;;;;;;;;1.67;1.67;;;;;19.71;70.27;101180.06;5116038;27;45381;-75
2023/08/31 08:50:17;;;;;;;;;3.00;3.00;;;;;19.65;67.11;101165.31;5102098;27;45425;-74
2023/08/31 08:52:44;;;;;;;;;5.00;3.00;;;;;19.72;66.12;101179.09;5112087;27;45361;-75
2023/08/31 08:55:09;;;;;;;;;3.67;3.67;;;;;19.72;67.79;101184.47;5114220;27;45455;-74
2023/08/31 08:57:35;;;;;;;;;3.00;3.00;;;;;19.75;70.08;101184.22;5115814;27;45394;-75
2023/08/31 09:00:02;;;;;;;;;2.00;1.00;;;;;19.75;69.85;101185.06;5116370;27;45294;-75
2023/08/31 09:02:28;;;;;;;;;2.00;2.00;;;;;19.77;68.70;101182.25;5115257;27;46021;-75
2023/08/31 09:04:54;;;;;;;;;1.67;1.67;;;;;19.75;70.06;101176.16;5115377;27;45294;-75
2023/08/31 09:07:23;;;;;;;;;2.33;2.33;;;;;19.82;68.97;101188.13;5108600;27;45358;-75
2023/08/31 09:09:54;;;;;;;;;5.00;2.00;;;;;19.88;64.95;101179.59;5108839;27;45373;-75
2023/08/31 09:12:24;;;;;;;;;3.33;1.33;;;;;19.90;64.28;101182.13;5112426;27;45391;-74
2023/08/31 09:15:04;;;;;;;;;4.00;1.67;;;;;19.72;67.95;101157.63;5104131;27;45607;-75
2023/08/31 09:17:42;;;;;;;;;1.33;1.33;;;;;19.89;68.84;101170.56;5113634;27;45497;-75
2023/08/31 09:20:09;;;;;;;;;3.00;3.00;;;;;19.93;68.60;101176.50;5100396;27;45706;-75
2023/08/31 09:22:35;;;;;;;;;1.67;1.67;;;;;19.94;67.29;101180.91;5106861;27;45397;-75
2023/08/31 09:25:02;;;;;;;;;2.00;2.00;;;;;19.97;66.08;101178.84;5113468;27;45417;-75
2023/08/31 09:27:28;;;;;;;;;4.00;4.00;;;;;20.02;67.97;101184.72;5106168;27;45530;-74
2023/08/31 09:29:56;;;;;;;;;4.67;4.00;;;;;20.09;67.53;101175.16;5107597;27;45444;-75
2023/08/31 09:32:22;;;;;;;;;3.00;3.00;;;;;20.12;65.81;101160.66;5101844;27;45313;-74
2023/08/31 09:34:48;;;;;;;;;3.00;3.00;;;;;20.24;68.32;101152.44;5106220;27;45275;-75
2023/08/31 09:37:15;;;;;;;;;2.33;1.67;;;;;20.49;67.17;101172.78;5115696;27;45606;-74
2023/08/31 09:39:42;;;;;;;;;2.00;2.00;;;;;20.52;69.38;101158.25;5112114;27;45298;-75
2023/08/31 09:42:08;;;;;;;;;2.67;2.00;;;;;20.41;65.08;101150.22;5119590;27;46236;-74
2023/08/31 09:44:33;;;;;;;;;2.00;2.00;;;;;20.43;68.09;101172.44;5101976;27;45386;-73
2023/08/31 09:46:59;;;;;;;;;3.00;3.00;;;;;20.22;69.19;101140.94;5110235;27;45293;-75
2023/08/31 09:49:25;;;;;;;;;2.00;2.00;;;;;20.30;70.48;101161.00;5107039;27;45451;-75
2023/08/31 09:51:51;;;;;;;;;3.00;2.00;;;;;20.32;67.64;101167.94;5108298;27;46183;-74
2023/08/31 09:54:25;;;;;;;;;3.00;2.67;;;;;20.23;68.25;101165.97;5109508;27;45459;-75
2023/08/31 09:56:56;;;;;;;;;4.00;4.00;;;;;20.07;69.07;101144.03;5117898;27;45429;-74
2023/08/31 09:59:22;;;;;;;;;2.00;2.00;;;;;20.21;71.46;101171.50;5106779;27;45468;-74
2023/08/31 10:01:48;;;;;;;;;4.33;3.00;;;;;20.13;72.14;101151.59;5102454;27;45417;-74
2023/08/31 10:04:13;;;;;;;;;3.00;3.00;;;;;20.19;71.70;101161.84;5111256;27;45433;-74
2023/08/31 10:06:40;;;;;;;;;3.00;2.33;;;;;20.04;70.64;101153.22;5116080;27;45323;-74
2023/08/31 10:09:06;;;;;;;;;3.00;2.33;;;;;20.00;71.96;101135.63;5112298;27;45411;-74
2023/08/31 10:11:32;;;;;;;;;2.00;2.00;;;;;20.17;72.71;101161.13;5112338;27;45514;-75
2023/08/31 10:13:58;;;;;;;;;2.33;2.00;;;;;20.15;77.21;101147.81;5108404;27;45347;-74
2023/08/31 10:16:28;;;;;;;;;2.33;2.33;;;;;20.10;75.79;101131.22;5109821;27;45484;-74
2023/08/31 10:18:55;;;;;;;;;4.00;2.00;;;;;20.10;75.01;101133.91;5110220;27;45363;-74
2023/08/31 10:21:21;;;;;;;;;6.67;3.00;;;;;20.07;81.63;101133.28;5120047;27;46636;-75
2023/08/31 10:23:47;;;;;;;;;4.67;4.00;;;;;20.25;83.55;101155.97;5115738;27;45341;-74
2023/08/31 10:26:28;;;;;;;;;2.67;2.00;;;;;20.07;78.19;101134.16;5114230;27;45437;-74
2023/08/31 10:28:54;;;;;;;;;4.00;4.00;;;;;20.15;79.06;101152.34;5107661;27;45285;-75
2023/08/31 10:31:23;;;;;;;;;3.67;3.00;;;;;20.05;78.96;101146.88;5105502;27;45976;-74
2023/08/31 10:34:09;;;;;;;;;9.33;6.33;;;;;20.09;80.88;101153.66;5115387;27;45501;-74
2023/08/31 10:36:45;;;;;;;;;4.00;3.00;;;;;20.06;79.76;101147.69;5109478;27;45614;-75
2023/08/31 10:39:16;;;;;;;;;4.00;4.00;;;;;19.96;85.31;101138.72;5108820;27;45488;-74
2023/08/31 10:41:42;;;;;;;;;5.00;4.00;;;;;19.91;80.72;101144.44;5102970;27;46294;-73
2023/08/31 10:44:23;;;;;;;;;3.33;3.33;;;;;19.86;82.59;101145.78;5103144;27;45232;-74
2023/08/31 10:46:49;;;;;;;;;6.00;3.67;;;;;19.85;84.57;101147.63;5108432;27;45761;-74
2023/08/31 10:49:18;;;;;;;;;3.00;2.00;;;;;19.74;84.48;101137.72;5111315;27;45498;-74
2023/08/31 10:51:46;;;;;;;;;5.00;5.00;;;;;19.76;82.30;101140.31;5102983;27;45930;-74
2023/08/31 10:54:37;;;;;;;;;4.00;4.00;;;;;19.82;81.76;101139.81;5104452;27;45413;-74
2023/08/31 10:57:07;;;;;;;;;5.00;4.33;;;;;19.83;87.97;101122.72;5100459;27;45509;-74
2023/08/31 10:59:47;;;;;;;;;3.33;3.33;;;;;19.97;86.87;101126.97;5104459;27;45463;-74
2023/08/31 11:02:30;;;;;;;;;5.67;4.00;;;;;19.88;79.90;101115.16;5114849;27;46948;-74
2023/08/31 11:05:09;;;;;;;;;2.67;2.67;;;;;19.82;76.65;101104.06;5102112;27;45337;-74
2023/08/31 11:07:35;;;;;;;;;2.67;2.67;;;;;19.93;78.98;101118.31;5104326;27;45863;-74
2023/08/31 11:10:18;;;;;;;;;3.00;3.00;;;;;19.96;78.07;101128.78;5112890;27;45710;-74
2023/08/31 11:12:48;;;;;;;;;3.67;3.67;;;;;19.75;77.57;101104.56;5102523;27;46316;-74
2023/08/31 11:15:19;;;;;;;;;6.00;5.00;;;;;19.83;74.44;101114.66;5109506;27;45343;-74
2023/08/31 11:17:46;;;;;;;;;7.00;4.67;;;;;19.81;79.93;101113.06;5103148;27;45479;-74
2023/08/31 11:20:17;;;;;;;;;3.00;3.00;;;;;19.68;74.95;101089.91;5115492;27;45577;-74
2023/08/31 11:22:49;;;;;;;;;3.33;3.00;;;;;19.89;77.99;101116.88;5119722;27;46386;-74
2023/08/31 11:25:16;;;;;;;;;5.67;3.00;;;;;19.86;78.38;101116.25;5110473;27;45409;-74